sensor_id;sensor_type;location;lat;lon;timestamp;pressure;altitude;pressure_sealevel;temperature;humidity
29467;BME280;60968;37.490;-122.288;2023-06-22T00:00:09;98715.81;;;16.90;64.04
29467;BME280;60968;37.490;-122.288;2023-06-22T00:03:10;98710.53;;;16.69;65.00
29467;BME280;60968;37.490;-122.288;2023-06-22T00:06:11;98708.34;;;16.60;65.66
29467;BME280;60968;37.490;-122.288;2023-06-22T00:09:12;98714.09;;;16.27;66.45
29467;BME280;60968;37.490;-122.288;2023-06-22T00:12:13;98716.16;;;16.41;65.73
29467;BME280;60968;37.490;-122.288;2023-06-22T00:15:14;98701.38;;;16.18;66.31
29467;BME280;60968;37.490;-122.288;2023-06-22T00:18:15;98713.28;;;16.04;68.14
29467;BME280;60968;37.490;-122.288;2023-06-22T00:21:18;98701.47;;;15.94;69.29
29467;BME280;60968;37.490;-122.288;2023-06-22T00:24:20;98699.34;;;15.82;69.96
29467;BME280;60968;37.490;-122.288;2023-06-22T00:27:21;98692.31;;;15.82;69.58
29467;BME280;60968;37.490;-122.288;2023-06-22T00:30:21;98701.44;;;15.72;69.85
29467;BME280;60968;37.490;-122.288;2023-06-22T00:33:24;98702.66;;;16.07;69.91
29467;BME280;60968;37.490;-122.288;2023-06-22T00:36:28;98688.94;;;16.21;69.74
29467;BME280;60968;37.490;-122.288;2023-06-22T00:39:29;98686.19;;;16.04;69.47
29467;BME280;60968;37.490;-122.288;2023-06-22T00:42:31;98679.59;;;16.14;69.68
29467;BME280;60968;37.490;-122.288;2023-06-22T00:45:32;98681.28;;;15.94;70.26
29467;BME280;60968;37.490;-122.288;2023-06-22T00:48:33;98679.59;;;15.71;69.96
29467;BME280;60968;37.490;-122.288;2023-06-22T00:51:34;98677.63;;;15.54;71.61
29467;BME280;60968;37.490;-122.288;2023-06-22T00:54:36;98678.13;;;15.42;72.37
29467;BME280;60968;37.490;-122.288;2023-06-22T00:57:40;98673.97;;;15.36;73.03
29467;BME280;60968;37.490;-122.288;2023-06-22T01:00:41;98668.41;;;15.22;74.20
29467;BME280;60968;37.490;-122.288;2023-06-22T01:03:43;98673.81;;;15.17;73.56
29467;BME280;60968;37.490;-122.288;2023-06-22T01:13:32;98668.50;;;15.19;74.92
29467;BME280;60968;37.490;-122.288;2023-06-22T01:16:39;98670.28;;;15.18;76.16
29467;BME280;60968;37.490;-122.288;2023-06-22T01:19:50;98664.63;;;15.29;74.81
29467;BME280;60968;37.490;-122.288;2023-06-22T01:26:17;98669.44;;;14.94;76.57
29467;BME280;60968;37.490;-122.288;2023-06-22T01:29:19;98662.66;;;14.65;76.73
29467;BME280;60968;37.490;-122.288;2023-06-22T01:32:22;98667.09;;;14.61;77.06
29467;BME280;60968;37.490;-122.288;2023-06-22T01:35:23;98669.44;;;14.45;76.72
29467;BME280;60968;37.490;-122.288;2023-06-22T01:38:26;98657.09;;;14.23;78.33
29467;BME280;60968;37.490;-122.288;2023-06-22T01:41:29;98654.81;;;14.13;79.02
29467;BME280;60968;37.490;-122.288;2023-06-22T01:44:30;98664.25;;;14.18;79.12
29467;BME280;60968;37.490;-122.288;2023-06-22T01:47:32;98664.72;;;14.04;79.11
29467;BME280;60968;37.490;-122.288;2023-06-22T01:50:34;98664.50;;;14.11;78.32
29467;BME280;60968;37.490;-122.288;2023-06-22T01:53:36;98661.00;;;13.85;80.76
29467;BME280;60968;37.490;-122.288;2023-06-22T01:56:37;98668.28;;;13.75;81.36
29467;BME280;60968;37.490;-122.288;2023-06-22T01:59:50;98670.22;;;13.70;81.14
29467;BME280;60968;37.490;-122.288;2023-06-22T02:02:59;98661.97;;;13.54;82.29
29467;BME280;60968;37.490;-122.288;2023-06-22T02:06:05;98660.88;;;13.33;84.13
29467;BME280;60968;37.490;-122.288;2023-06-22T02:09:14;98662.00;;;13.24;84.49
29467;BME280;60968;37.490;-122.288;2023-06-22T02:12:18;98671.53;;;13.27;85.45
29467;BME280;60968;37.490;-122.288;2023-06-22T02:15:21;98663.78;;;13.24;85.74
29467;BME280;60968;37.490;-122.288;2023-06-22T02:18:22;98667.38;;;13.19;85.98
29467;BME280;60968;37.490;-122.288;2023-06-22T02:21:25;98662.44;;;13.10;87.03
29467;BME280;60968;37.490;-122.288;2023-06-22T02:24:26;98658.03;;;13.12;86.93
29467;BME280;60968;37.490;-122.288;2023-06-22T02:27:27;98659.38;;;12.96;87.68
29467;BME280;60968;37.490;-122.288;2023-06-22T02:30:27;98659.28;;;12.99;87.92
29467;BME280;60968;37.490;-122.288;2023-06-22T02:33:28;98661.31;;;12.89;87.20
29467;BME280;60968;37.490;-122.288;2023-06-22T02:36:29;98656.03;;;12.91;87.12
29467;BME280;60968;37.490;-122.288;2023-06-22T02:39:30;98660.50;;;12.87;88.41
29467;BME280;60968;37.490;-122.288;2023-06-22T02:42:31;98662.53;;;12.77;89.23
29467;BME280;60968;37.490;-122.288;2023-06-22T02:45:34;98659.91;;;12.77;89.08
29467;BME280;60968;37.490;-122.288;2023-06-22T02:48:36;98667.63;;;12.82;88.26
29467;BME280;60968;37.490;-122.288;2023-06-22T02:51:44;98670.97;;;12.87;88.84
29467;BME280;60968;37.490;-122.288;2023-06-22T02:54:46;98671.03;;;12.84;88.49
29467;BME280;60968;37.490;-122.288;2023-06-22T02:57:47;98670.22;;;12.82;87.66
29467;BME280;60968;37.490;-122.288;2023-06-22T03:00:48;98683.22;;;12.85;87.06
29467;BME280;60968;37.490;-122.288;2023-06-22T03:03:49;98689.00;;;12.65;88.27
29467;BME280;60968;37.490;-122.288;2023-06-22T03:06:50;98682.00;;;12.34;90.78
29467;BME280;60968;37.490;-122.288;2023-06-22T03:09:51;98683.19;;;12.21;91.97
29467;BME280;60968;37.490;-122.288;2023-06-22T03:12:52;98692.38;;;12.03;94.60
29467;BME280;60968;37.490;-122.288;2023-06-22T03:15:53;98680.41;;;11.94;95.08
29467;BME280;60968;37.490;-122.288;2023-06-22T03:18:55;98683.81;;;11.97;93.46
29467;BME280;60968;37.490;-122.288;2023-06-22T03:21:57;98681.22;;;11.96;93.10
29467;BME280;60968;37.490;-122.288;2023-06-22T03:24:58;98679.72;;;11.86;93.02
29467;BME280;60968;37.490;-122.288;2023-06-22T03:27:59;98686.16;;;11.71;92.39
29467;BME280;60968;37.490;-122.288;2023-06-22T03:31:00;98683.72;;;11.64;91.94
29467;BME280;60968;37.490;-122.288;2023-06-22T03:34:01;98680.81;;;11.75;91.06
29467;BME280;60968;37.490;-122.288;2023-06-22T03:37:04;98680.66;;;11.83;91.81
29467;BME280;60968;37.490;-122.288;2023-06-22T03:40:08;98685.25;;;11.73;90.37
29467;BME280;60968;37.490;-122.288;2023-06-22T03:43:10;98682.94;;;11.59;93.94
29467;BME280;60968;37.490;-122.288;2023-06-22T03:46:11;98678.84;;;11.49;94.74
29467;BME280;60968;37.490;-122.288;2023-06-22T03:49:12;98678.81;;;11.50;95.34
29467;BME280;60968;37.490;-122.288;2023-06-22T03:52:13;98685.88;;;11.45;96.96
29467;BME280;60968;37.490;-122.288;2023-06-22T03:55:14;98678.22;;;11.38;97.01
29467;BME280;60968;37.490;-122.288;2023-06-22T03:58:16;98681.59;;;11.43;93.76
29467;BME280;60968;37.490;-122.288;2023-06-22T04:01:18;98683.22;;;11.47;94.29
29467;BME280;60968;37.490;-122.288;2023-06-22T04:04:19;98685.13;;;11.40;96.61
29467;BME280;60968;37.490;-122.288;2023-06-22T04:07:20;98688.63;;;11.39;95.74
29467;BME280;60968;37.490;-122.288;2023-06-22T04:10:21;98681.88;;;11.29;98.33
29467;BME280;60968;37.490;-122.288;2023-06-22T04:13:22;98683.75;;;11.24;97.61
29467;BME280;60968;37.490;-122.288;2023-06-22T04:16:23;98679.25;;;11.30;98.02
29467;BME280;60968;37.490;-122.288;2023-06-22T04:19:24;98688.84;;;11.30;95.61
29467;BME280;60968;37.490;-122.288;2023-06-22T04:22:25;98697.38;;;11.37;97.38
29467;BME280;60968;37.490;-122.288;2023-06-22T04:25:26;98700.84;;;11.37;97.77
29467;BME280;60968;37.490;-122.288;2023-06-22T04:28:27;98697.47;;;11.32;97.96
29467;BME280;60968;37.490;-122.288;2023-06-22T04:31:28;98697.28;;;11.41;97.73
29467;BME280;60968;37.490;-122.288;2023-06-22T04:34:30;98701.69;;;11.38;97.39
29467;BME280;60968;37.490;-122.288;2023-06-22T04:37:34;98698.34;;;11.32;97.16
29467;BME280;60968;37.490;-122.288;2023-06-22T04:40:39;98702.69;;;11.32;98.97
29467;BME280;60968;37.490;-122.288;2023-06-22T04:43:40;98708.75;;;11.34;99.70
29467;BME280;60968;37.490;-122.288;2023-06-22T04:46:43;98710.50;;;11.32;100.00
29467;BME280;60968;37.490;-122.288;2023-06-22T04:49:44;98702.75;;;11.29;100.00
29467;BME280;60968;37.490;-122.288;2023-06-22T04:52:44;98706.72;;;11.06;100.00
29467;BME280;60968;37.490;-122.288;2023-06-22T04:55:45;98709.44;;;11.02;100.00
29467;BME280;60968;37.490;-122.288;2023-06-22T04:58:47;98708.03;;;10.85;100.00
29467;BME280;60968;37.490;-122.288;2023-06-22T05:01:50;98703.91;;;10.75;100.00
29467;BME280;60968;37.490;-122.288;2023-06-22T05:04:51;98712.56;;;10.75;100.00
29467;BME280;60968;37.490;-122.288;2023-06-22T05:07:57;98709.94;;;10.75;100.00
29467;BME280;60968;37.490;-122.288;2023-06-22T05:10:58;98710.72;;;10.80;100.00
29467;BME280;60968;37.490;-122.288;2023-06-22T05:13:59;98712.47;;;10.81;100.00
29467;BME280;60968;37.490;-122.288;2023-06-22T05:17:01;98708.03;;;10.85;100.00
29467;BME280;60968;37.490;-122.288;2023-06-22T05:20:03;98705.41;;;10.85;100.00
29467;BME280;60968;37.490;-122.288;2023-06-22T05:23:04;98696.81;;;10.81;100.00
29467;BME280;60968;37.490;-122.288;2023-06-22T05:26:05;98702.84;;;10.84;100.00
29467;BME280;60968;37.490;-122.288;2023-06-22T05:29:06;98706.25;;;10.87;100.00
29467;BME280;60968;37.490;-122.288;2023-06-22T05:32:08;98708.88;;;10.86;100.00
29467;BME280;60968;37.490;-122.288;2023-06-22T05:35:09;98708.16;;;10.79;100.00
29467;BME280;60968;37.490;-122.288;2023-06-22T05:38:10;98703.13;;;10.70;100.00
29467;BME280;60968;37.490;-122.288;2023-06-22T05:41:11;98703.91;;;10.75;100.00
29467;BME280;60968;37.490;-122.288;2023-06-22T05:44:13;98712.38;;;10.85;100.00
29467;BME280;60968;37.490;-122.288;2023-06-22T05:47:15;98714.09;;;10.87;100.00
29467;BME280;60968;37.490;-122.288;2023-06-22T05:50:16;98707.13;;;10.86;100.00
29467;BME280;60968;37.490;-122.288;2023-06-22T05:53:17;98710.66;;;10.84;100.00
29467;BME280;60968;37.490;-122.288;2023-06-22T05:56:18;98714.00;;;10.90;99.98
29467;BME280;60968;37.490;-122.288;2023-06-22T05:59:19;98706.28;;;10.84;99.13
29467;BME280;60968;37.490;-122.288;2023-06-22T06:02:20;98708.00;;;10.87;99.00
29467;BME280;60968;37.490;-122.288;2023-06-22T06:05:21;98704.59;;;10.83;98.68
29467;BME280;60968;37.490;-122.288;2023-06-22T06:08:22;98702.84;;;10.84;98.91
29467;BME280;60968;37.490;-122.288;2023-06-22T06:11:24;98697.75;;;10.77;100.00
29467;BME280;60968;37.490;-122.288;2023-06-22T06:14:25;98696.88;;;10.77;100.00
29467;BME280;60968;37.490;-122.288;2023-06-22T06:17:26;98694.44;;;10.69;100.00
29467;BME280;60968;37.490;-122.288;2023-06-22T06:20:27;98685.06;;;10.60;100.00
29467;BME280;60968;37.490;-122.288;2023-06-22T06:23:28;98680.03;;;10.51;100.00
29467;BME280;60968;37.490;-122.288;2023-06-22T06:26:29;98677.47;;;10.50;100.00
29467;BME280;60968;37.490;-122.288;2023-06-22T06:29:31;98678.50;;;10.41;100.00
29467;BME280;60968;37.490;-122.288;2023-06-22T06:32:32;98673.28;;;10.41;100.00
29467;BME280;60968;37.490;-122.288;2023-06-22T06:35:34;98670.75;;;10.36;100.00
29467;BME280;60968;37.490;-122.288;2023-06-22T06:38:35;98677.75;;;10.34;100.00
29467;BME280;60968;37.490;-122.288;2023-06-22T06:41:36;98667.31;;;10.34;100.00
29467;BME280;60968;37.490;-122.288;2023-06-22T06:44:37;98662.03;;;10.39;100.00
29467;BME280;60968;37.490;-122.288;2023-06-22T06:47:39;98653.41;;;10.37;100.00
29467;BME280;60968;37.490;-122.288;2023-06-22T06:50:40;98654.78;;;10.55;100.00
29467;BME280;60968;37.490;-122.288;2023-06-22T06:53:41;98653.84;;;10.57;100.00
29467;BME280;60968;37.490;-122.288;2023-06-22T06:56:42;98645.16;;;10.58;100.00
29467;BME280;60968;37.490;-122.288;2023-06-22T06:59:43;98655.69;;;10.52;100.00
29467;BME280;60968;37.490;-122.288;2023-06-22T07:02:45;98648.16;;;10.38;100.00
29467;BME280;60968;37.490;-122.288;2023-06-22T07:05:46;98648.19;;;10.34;100.00
29467;BME280;60968;37.490;-122.288;2023-06-22T07:08:47;98643.94;;;10.28;100.00
29467;BME280;60968;37.490;-122.288;2023-06-22T07:11:48;98642.31;;;10.22;100.00
29467;BME280;60968;37.490;-122.288;2023-06-22T07:14:49;98633.66;;;10.22;100.00
29467;BME280;60968;37.490;-122.288;2023-06-22T07:17:50;98640.59;;;10.23;100.00
29467;BME280;60968;37.490;-122.288;2023-06-22T07:20:52;98637.16;;;10.21;100.00
29467;BME280;60968;37.490;-122.288;2023-06-22T07:23:53;98632.84;;;10.18;100.00
29467;BME280;60968;37.490;-122.288;2023-06-22T07:26:54;98631.00;;;10.25;100.00
29467;BME280;60968;37.490;-122.288;2023-06-22T07:29:56;98623.41;;;10.12;100.00
29467;BME280;60968;37.490;-122.288;2023-06-22T07:32:57;98625.22;;;10.09;100.00
29467;BME280;60968;37.490;-122.288;2023-06-22T07:35:58;98619.06;;;10.15;100.00
29467;BME280;60968;37.490;-122.288;2023-06-22T07:38:59;98610.41;;;10.12;100.00
29467;BME280;60968;37.490;-122.288;2023-06-22T07:42:00;98620.78;;;10.16;100.00
29467;BME280;60968;37.490;-122.288;2023-06-22T07:45:03;98618.47;;;9.97;100.00
29467;BME280;60968;37.490;-122.288;2023-06-22T07:48:06;98613.38;;;9.92;100.00
29467;BME280;60968;37.490;-122.288;2023-06-22T07:51:07;98614.47;;;9.81;100.00
29467;BME280;60968;37.490;-122.288;2023-06-22T07:54:09;98617.88;;;9.83;100.00
29467;BME280;60968;37.490;-122.288;2023-06-22T07:57:10;98617.81;;;9.87;100.00
29467;BME280;60968;37.490;-122.288;2023-06-22T08:00:13;98615.16;;;9.90;100.00
29467;BME280;60968;37.490;-122.288;2023-06-22T08:03:14;98599.69;;;9.81;100.00
29467;BME280;60968;37.490;-122.288;2023-06-22T08:06:16;98604.94;;;9.79;100.00
29467;BME280;60968;37.490;-122.288;2023-06-22T08:09:17;98607.66;;;9.73;100.00
29467;BME280;60968;37.490;-122.288;2023-06-22T08:12:19;98614.53;;;9.74;100.00
29467;BME280;60968;37.490;-122.288;2023-06-22T08:15:20;98606.81;;;9.71;100.00
29467;BME280;60968;37.490;-122.288;2023-06-22T08:18:21;98610.31;;;9.69;100.00
29467;BME280;60968;37.490;-122.288;2023-06-22T08:21:23;98606.03;;;9.66;100.00
29467;BME280;60968;37.490;-122.288;2023-06-22T08:24:24;98603.44;;;9.66;100.00
29467;BME280;60968;37.490;-122.288;2023-06-22T08:27:25;98597.34;;;9.66;100.00
29467;BME280;60968;37.490;-122.288;2023-06-22T08:30:26;98603.47;;;9.63;100.00
29467;BME280;60968;37.490;-122.288;2023-06-22T08:33:27;98605.25;;;9.61;100.00
29467;BME280;60968;37.490;-122.288;2023-06-22T08:36:28;98606.03;;;9.66;100.00
29467;BME280;60968;37.490;-122.288;2023-06-22T08:39:29;98604.34;;;9.64;100.00
29467;BME280;60968;37.490;-122.288;2023-06-22T08:42:31;98601.63;;;9.70;100.00
29467;BME280;60968;37.490;-122.288;2023-06-22T08:45:32;98593.78;;;9.71;100.00
29467;BME280;60968;37.490;-122.288;2023-06-22T08:48:33;98595.28;;;9.86;100.00
29467;BME280;60968;37.490;-122.288;2023-06-22T08:51:34;98595.94;;;9.98;100.00
29467;BME280;60968;37.490;-122.288;2023-06-22T08:54:35;98580.09;;;10.10;100.00
29467;BME280;60968;37.490;-122.288;2023-06-22T08:57:36;98585.31;;;10.10;100.00
29467;BME280;60968;37.490;-122.288;2023-06-22T09:00:37;98586.91;;;10.17;100.00
29467;BME280;60968;37.490;-122.288;2023-06-22T09:03:39;98591.06;;;10.26;100.00
29467;BME280;60968;37.490;-122.288;2023-06-22T09:06:40;98588.44;;;10.27;100.00
29467;BME280;60968;37.490;-122.288;2023-06-22T09:09:41;98580.50;;;10.32;100.00
29467;BME280;60968;37.490;-122.288;2023-06-22T09:12:42;98579.63;;;10.33;100.00
29467;BME280;60968;37.490;-122.288;2023-06-22T09:15:43;98575.28;;;10.34;100.00
29467;BME280;60968;37.490;-122.288;2023-06-22T09:18:47;98571.88;;;10.30;100.00
29467;BME280;60968;37.490;-122.288;2023-06-22T09:21:49;98573.63;;;10.31;100.00
29467;BME280;60968;37.490;-122.288;2023-06-22T09:24:50;98582.41;;;10.25;100.00
29467;BME280;60968;37.490;-122.288;2023-06-22T09:27:51;98581.34;;;10.36;100.00
29467;BME280;60968;37.490;-122.288;2023-06-22T09:30:51;98577.88;;;10.37;100.00
29467;BME280;60968;37.490;-122.288;2023-06-22T09:33:55;98580.66;;;10.26;100.00
29467;BME280;60968;37.490;-122.288;2023-06-22T09:36:56;98573.00;;;10.17;100.00
29467;BME280;60968;37.490;-122.288;2023-06-22T09:39:57;98572.31;;;10.08;100.00
29467;BME280;60968;37.490;-122.288;2023-06-22T09:42:58;98574.22;;;10.00;100.00
29467;BME280;60968;37.490;-122.288;2023-06-22T09:45:59;98573.28;;;10.01;100.00
29467;BME280;60968;37.490;-122.288;2023-06-22T09:49:00;98574.38;;;9.91;100.00
29467;BME280;60968;37.490;-122.288;2023-06-22T09:52:01;98579.78;;;9.78;100.00
29467;BME280;60968;37.490;-122.288;2023-06-22T09:55:02;98569.34;;;9.80;100.00
29467;BME280;60968;37.490;-122.288;2023-06-22T09:58:03;98574.53;;;9.83;100.00
29467;BME280;60968;37.490;-122.288;2023-06-22T10:01:04;98571.09;;;9.79;100.00
29467;BME280;60968;37.490;-122.288;2023-06-22T10:04:04;98577.34;;;9.71;100.00
29467;BME280;60968;37.490;-122.288;2023-06-22T10:07:05;98576.47;;;9.70;100.00
29467;BME280;60968;37.490;-122.288;2023-06-22T10:10:07;98574.75;;;9.69;100.00
29467;BME280;60968;37.490;-122.288;2023-06-22T10:13:09;98573.22;;;9.57;100.00
29467;BME280;60968;37.490;-122.288;2023-06-22T10:16:10;98575.97;;;9.50;100.00
29467;BME280;60968;37.490;-122.288;2023-06-22T10:19:11;98572.47;;;9.51;100.00
29467;BME280;60968;37.490;-122.288;2023-06-22T10:22:12;98575.97;;;9.50;100.00
29467;BME280;60968;37.490;-122.288;2023-06-22T10:25:13;98571.78;;;9.41;100.00
29467;BME280;60968;37.490;-122.288;2023-06-22T10:28:15;98579.41;;;9.50;100.00
29467;BME280;60968;37.490;-122.288;2023-06-22T10:31:16;98581.94;;;9.56;100.00
29467;BME280;60968;37.490;-122.288;2023-06-22T10:34:17;98580.81;;;9.70;100.00
29467;BME280;60968;37.490;-122.288;2023-06-22T10:37:17;98572.09;;;9.72;100.00
29467;BME280;60968;37.490;-122.288;2023-06-22T10:40:19;98579.22;;;9.63;100.00
29467;BME280;60968;37.490;-122.288;2023-06-22T10:43:20;98573.88;;;9.69;100.00
29467;BME280;60968;37.490;-122.288;2023-06-22T10:46:20;98573.88;;;9.69;100.00
29467;BME280;60968;37.490;-122.288;2023-06-22T10:49:21;98577.50;;;9.60;100.00
29467;BME280;60968;37.490;-122.288;2023-06-22T10:52:22;98568.84;;;9.61;100.00
29467;BME280;60968;37.490;-122.288;2023-06-22T10:55:23;98569.75;;;9.58;100.00
29467;BME280;60968;37.490;-122.288;2023-06-22T10:58:24;98562.09;;;9.51;100.00
29467;BME280;60968;37.490;-122.288;2023-06-22T11:01:25;98567.28;;;9.51;100.00
29467;BME280;60968;37.490;-122.288;2023-06-22T11:04:26;98572.50;;;9.48;100.00
29467;BME280;60968;37.490;-122.288;2023-06-22T11:07:27;98570.88;;;9.42;100.00
29467;BME280;60968;37.490;-122.288;2023-06-22T11:10:28;98569.25;;;9.35;100.00
29467;BME280;60968;37.490;-122.288;2023-06-22T11:13:29;98569.22;;;9.36;100.00
29467;BME280;60968;37.490;-122.288;2023-06-22T11:16:30;98568.50;;;9.30;100.00
29467;BME280;60968;37.490;-122.288;2023-06-22T11:19:31;98569.41;;;9.27;100.00
29467;BME280;60968;37.490;-122.288;2023-06-22T11:22:32;98562.41;;;9.29;100.00
29467;BME280;60968;37.490;-122.288;2023-06-22T11:25:34;98562.44;;;9.27;100.00
29467;BME280;60968;37.490;-122.288;2023-06-22T11:28:35;98559.94;;;9.23;100.00
29467;BME280;60968;37.490;-122.288;2023-06-22T11:31:36;98562.53;;;9.23;100.00
29467;BME280;60968;37.490;-122.288;2023-06-22T11:34:37;98554.72;;;9.23;100.00
29467;BME280;60968;37.490;-122.288;2023-06-22T11:37:38;98554.66;;;9.27;100.00
29467;BME280;60968;37.490;-122.288;2023-06-22T11:40:39;98551.22;;;9.24;100.00
29467;BME280;60968;37.490;-122.288;2023-06-22T11:43:40;98553.00;;;9.22;100.00
29467;BME280;60968;37.490;-122.288;2023-06-22T11:46:41;98546.00;;;9.27;100.00
29467;BME280;60968;37.490;-122.288;2023-06-22T11:49:42;98545.03;;;9.33;100.00
29467;BME280;60968;37.490;-122.288;2023-06-22T11:52:43;98553.69;;;9.33;100.00
29467;BME280;60968;37.490;-122.288;2023-06-22T11:55:44;98560.47;;;9.42;100.00
29467;BME280;60968;37.490;-122.288;2023-06-22T11:58:45;98559.59;;;9.43;100.00
29467;BME280;60968;37.490;-122.288;2023-06-22T12:01:47;98562.06;;;9.52;100.00
29467;BME280;60968;37.490;-122.288;2023-06-22T12:04:48;98563.56;;;9.64;100.00
29467;BME280;60968;37.490;-122.288;2023-06-22T12:07:49;98548.69;;;9.72;100.00
29467;BME280;60968;37.490;-122.288;2023-06-22T12:10:50;98546.97;;;9.71;100.00
29467;BME280;60968;37.490;-122.288;2023-06-22T12:13:51;98553.81;;;9.75;100.00
29467;BME280;60968;37.490;-122.288;2023-06-22T12:16:52;98549.47;;;9.77;100.00
29467;BME280;60968;37.490;-122.288;2023-06-22T12:19:53;98546.09;;;9.72;100.00
29467;BME280;60968;37.490;-122.288;2023-06-22T12:22:53;98546.88;;;9.77;100.00
29467;BME280;60968;37.490;-122.288;2023-06-22T12:25:54;98551.31;;;9.71;100.00
29467;BME280;60968;37.490;-122.288;2023-06-22T12:28:56;98555.78;;;9.63;100.00
29467;BME280;60968;37.490;-122.288;2023-06-22T12:31:57;98560.84;;;9.70;100.00
29467;BME280;60968;37.490;-122.288;2023-06-22T12:34:58;98568.59;;;9.75;100.00
29467;BME280;60968;37.490;-122.288;2023-06-22T12:37:59;98552.78;;;9.84;100.00
29467;BME280;60968;37.490;-122.288;2023-06-22T12:41:00;98565.78;;;9.86;100.00
29467;BME280;60968;37.490;-122.288;2023-06-22T12:44:02;98569.31;;;9.83;100.00
29467;BME280;60968;37.490;-122.288;2023-06-22T12:47:03;98569.19;;;9.89;100.00
29467;BME280;60968;37.490;-122.288;2023-06-22T12:50:04;98576.88;;;9.95;100.00
29467;BME280;60968;37.490;-122.288;2023-06-22T12:53:05;98570.75;;;9.98;100.00
29467;BME280;60968;37.490;-122.288;2023-06-22T12:56:06;98569.09;;;9.94;100.00
29467;BME280;60968;37.490;-122.288;2023-06-22T12:59:08;98580.22;;;10.02;100.00
29467;BME280;60968;37.490;-122.288;2023-06-22T13:02:09;98566.38;;;10.02;100.00
29467;BME280;60968;37.490;-122.288;2023-06-22T13:05:09;98586.22;;;10.07;100.00
29467;BME280;60968;37.490;-122.288;2023-06-22T13:08:10;98578.38;;;10.09;100.00
29467;BME280;60968;37.490;-122.288;2023-06-22T13:11:11;98579.28;;;10.06;100.00
29467;BME280;60968;37.490;-122.288;2023-06-22T13:14:12;98576.72;;;10.05;100.00
29467;BME280;60968;37.490;-122.288;2023-06-22T13:17:13;98582.75;;;10.05;100.00
29467;BME280;60968;37.490;-122.288;2023-06-22T13:20:14;98589.75;;;10.03;100.00
29467;BME280;60968;37.490;-122.288;2023-06-22T13:23:15;98585.56;;;9.96;100.00
29467;BME280;60968;37.490;-122.288;2023-06-22T13:26:16;98588.81;;;10.07;100.00
29467;BME280;60968;37.490;-122.288;2023-06-22T13:29:17;98584.38;;;10.11;100.00
29467;BME280;60968;37.490;-122.288;2023-06-22T13:32:18;98579.22;;;10.09;100.00
29467;BME280;60968;37.490;-122.288;2023-06-22T13:35:19;98588.75;;;10.10;100.00
29467;BME280;60968;37.490;-122.288;2023-06-22T13:38:23;98596.41;;;10.20;100.00
29467;BME280;60968;37.490;-122.288;2023-06-22T13:41:25;98588.59;;;10.20;100.00
29467;BME280;60968;37.490;-122.288;2023-06-22T13:44:27;98588.56;;;10.21;100.00
29467;BME280;60968;37.490;-122.288;2023-06-22T13:47:29;98591.91;;;10.26;100.00
29467;BME280;60968;37.490;-122.288;2023-06-22T13:50:31;98591.88;;;10.29;100.00
29467;BME280;60968;37.490;-122.288;2023-06-22T13:53:34;98602.31;;;10.26;100.00
29467;BME280;60968;37.490;-122.288;2023-06-22T13:56:35;98597.34;;;10.16;100.00
29467;BME280;60968;37.490;-122.288;2023-06-22T13:59:36;98604.22;;;10.20;100.00
29467;BME280;60968;37.490;-122.288;2023-06-22T14:02:39;98601.63;;;10.17;100.00
29467;BME280;60968;37.490;-122.288;2023-06-22T14:05:41;98596.56;;;10.10;100.00
29467;BME280;60968;37.490;-122.288;2023-06-22T14:08:42;98599.31;;;10.03;100.00
29467;BME280;60968;37.490;-122.288;2023-06-22T14:11:44;98603.56;;;10.08;100.00
29467;BME280;60968;37.490;-122.288;2023-06-22T14:14:45;98598.22;;;10.15;100.00
29467;BME280;60968;37.490;-122.288;2023-06-22T14:17:48;98595.66;;;10.13;100.00
29467;BME280;60968;37.490;-122.288;2023-06-22T14:20:51;98596.44;;;10.17;100.00
29467;BME280;60968;37.490;-122.288;2023-06-22T14:23:54;98596.06;;;10.38;100.00
29467;BME280;60968;37.490;-122.288;2023-06-22T14:26:56;98594.84;;;10.56;100.00
29467;BME280;60968;37.490;-122.288;2023-06-22T14:29:57;98592.19;;;10.58;100.00
29467;BME280;60968;37.490;-122.288;2023-06-22T14:33:01;98593.03;;;10.58;100.00
29467;BME280;60968;37.490;-122.288;2023-06-22T14:36:03;98601.75;;;10.57;100.00
29467;BME280;60968;37.490;-122.288;2023-06-22T14:39:04;98605.13;;;10.62;100.00
29467;BME280;60968;37.490;-122.288;2023-06-22T14:42:09;98608.34;;;10.74;100.00
29467;BME280;60968;37.490;-122.288;2023-06-22T14:45:12;98605.28;;;10.97;100.00
29467;BME280;60968;37.490;-122.288;2023-06-22T14:48:13;98610.72;;;11.25;100.00
29467;BME280;60968;37.490;-122.288;2023-06-22T14:51:15;98614.47;;;11.49;100.00
29467;BME280;60968;37.490;-122.288;2023-06-22T14:54:19;98616.50;;;11.73;100.00
29467;BME280;60968;37.490;-122.288;2023-06-22T14:57:22;98607.56;;;11.83;100.00
29467;BME280;60968;37.490;-122.288;2023-06-22T15:00:24;98607.88;;;12.05;100.00
29467;BME280;60968;37.490;-122.288;2023-06-22T15:03:25;98610.69;;;11.97;100.00
29467;BME280;60968;37.490;-122.288;2023-06-22T15:06:27;98617.50;;;12.03;100.00
29467;BME280;60968;37.490;-122.288;2023-06-22T15:09:28;98613.44;;;12.26;100.00
29467;BME280;60968;37.490;-122.288;2023-06-22T15:12:29;98619.28;;;12.34;100.00
29467;BME280;60968;37.490;-122.288;2023-06-22T15:15:30;98620.97;;;12.37;100.00
29467;BME280;60968;37.490;-122.288;2023-06-22T15:18:33;98624.84;;;12.55;100.00
29467;BME280;60968;37.490;-122.288;2023-06-22T15:21:34;98624.25;;;12.75;99.39
29467;BME280;60968;37.490;-122.288;2023-06-22T15:24:35;98616.59;;;12.98;97.25
29467;BME280;60968;37.490;-122.288;2023-06-22T15:27:37;98618.84;;;13.09;94.95